createdAt,value
2019-03-20T05:26:53.593Z,28.00
2019-03-20T05:27:53.559Z,28.00
2019-03-20T05:28:53.549Z,32.00
2019-03-20T05:29:53.558Z,40.00
2019-03-20T05:30:53.531Z,44.00
2019-03-20T05:31:53.517Z,48.00
2019-03-20T05:32:53.526Z,56.00
2019-03-20T05:33:53.503Z,60.00
2019-03-20T05:34:53.524Z,64.00
2019-03-20T05:35:53.485Z,72.00
2019-03-20T05:36:53.465Z,80.00
2019-03-20T05:37:53.467Z,92.00
2019-03-20T05:38:53.454Z,100.00
2019-03-20T05:39:53.457Z,108.00
2019-03-20T05:40:53.427Z,116.00
2019-03-20T05:41:53.428Z,124.00
2019-03-20T05:42:53.412Z,136.00
2019-03-20T05:43:53.395Z,144.00
2019-03-20T05:44:53.402Z,152.00
2019-03-20T05:45:53.373Z,164.00
2019-03-20T05:46:53.361Z,172.00
2019-03-20T05:47:53.350Z,184.00
2019-03-20T05:48:53.352Z,196.00
2019-03-20T05:49:53.352Z,212.00
2019-03-20T05:50:53.319Z,224.00
2019-03-20T05:51:53.310Z,236.00
2019-03-20T05:52:53.300Z,256.00
2019-03-20T05:53:53.291Z,276.00
2019-03-20T05:54:53.301Z,296.00
2019-03-20T05:55:53.268Z,316.00
2019-03-20T05:56:53.253Z,332.00
2019-03-20T05:57:53.256Z,344.00
2019-03-20T05:58:53.237Z,356.00
2019-03-20T05:59:53.267Z,368.00
2019-03-20T06:00:53.220Z,380.00
2019-03-20T06:01:53.199Z,396.00
2019-03-20T06:02:53.191Z,408.00
2019-03-20T06:03:53.185Z,420.00
2019-03-20T06:04:53.170Z,440.00
2019-03-20T06:05:53.199Z,456.00
2019-03-20T06:06:53.145Z,476.00
2019-03-20T06:07:53.149Z,488.00
2019-03-20T06:08:53.129Z,508.00
2019-03-20T06:09:53.140Z,528.00
2019-03-20T06:10:53.129Z,548.00
2019-03-20T06:11:53.097Z,568.00
2019-03-20T06:12:53.086Z,588.00
2019-03-20T06:13:53.072Z,608.00
2019-03-20T06:14:53.062Z,624.00
2019-03-20T06:15:53.068Z,640.00
2019-03-20T06:16:53.037Z,656.00
2019-03-20T06:17:53.031Z,672.00
2019-03-20T06:18:53.016Z,684.00
2019-03-20T06:19:53.030Z,704.00
2019-03-20T06:20:53.039Z,720.00
2019-03-20T06:21:52.990Z,736.00
2019-03-20T06:22:52.988Z,756.00
2019-03-20T06:23:52.965Z,716.00
2019-03-20T06:24:52.949Z,788.00
2019-03-20T06:25:52.968Z,812.00
2019-03-20T06:26:52.933Z,856.00
2019-03-20T06:27:53.226Z,912.00
2019-03-20T06:28:52.905Z,976.00
2019-03-20T06:29:52.894Z,1048.00
2019-03-20T06:30:52.905Z,1080.00
2019-03-20T06:31:52.877Z,1076.00
2019-03-20T06:32:52.865Z,1060.00
2019-03-20T06:33:52.874Z,1064.00
2019-03-20T06:34:52.844Z,1080.00
2019-03-20T06:35:52.850Z,1100.00
2019-03-20T06:36:52.827Z,1104.00
2019-03-20T06:37:52.813Z,1100.00
2019-03-20T06:38:52.798Z,1108.00
2019-03-20T06:39:53.473Z,1128.00
2019-03-20T06:40:52.794Z,1160.00
2019-03-20T06:41:52.763Z,1120.00
2019-03-20T06:42:55.190Z,1172.00
2019-03-20T06:43:52.750Z,1164.00
2019-03-20T06:44:52.734Z,1228.00
2019-03-20T06:45:52.741Z,1300.00
2019-03-20T06:46:52.725Z,1416.00
2019-03-20T06:47:52.698Z,1508.00
2019-03-20T06:48:52.688Z,1620.00
2019-03-20T06:49:52.694Z,1776.00
2019-03-20T06:50:52.715Z,1892.00
2019-03-20T06:51:52.656Z,1888.00
2019-03-20T06:52:52.643Z,1736.00
2019-03-20T06:53:52.663Z,1804.00
2019-03-20T06:54:52.622Z,1804.00
2019-03-20T06:55:52.617Z,1816.00
2019-03-20T06:56:52.639Z,1832.00
2019-03-20T06:57:52.593Z,2056.00
2019-03-20T06:58:52.581Z,2276.00
2019-03-20T06:59:52.573Z,2472.00
2019-03-20T07:00:52.577Z,2620.00
2019-03-20T07:01:52.547Z,2696.00
2019-03-20T07:02:52.536Z,2856.00
2019-03-20T07:03:52.526Z,3008.00
2019-03-20T07:04:52.520Z,2928.00
2019-03-20T07:05:52.524Z,2728.00
2019-03-20T07:06:52.573Z,2668.00
2019-03-20T07:07:52.484Z,2776.00
2019-03-20T07:08:52.486Z,2536.00
2019-03-20T07:09:52.461Z,2428.00
2019-03-20T07:10:52.472Z,2476.00
2019-03-20T07:11:52.440Z,2452.00
2019-03-20T07:12:52.432Z,2372.00
2019-03-20T07:13:52.418Z,2300.00
2019-03-20T07:14:52.436Z,2336.00
2019-03-20T07:15:52.421Z,2604.00
2019-03-20T07:16:52.475Z,2676.00
2019-03-20T07:17:52.379Z,2596.00
2019-03-20T07:18:52.373Z,2368.00
2019-03-20T07:19:52.357Z,2084.00
2019-03-20T07:20:52.365Z,2168.00
2019-03-20T07:21:52.351Z,2432.00
2019-03-20T07:22:52.322Z,2680.00
2019-03-20T07:23:52.314Z,2840.00
2019-03-20T07:24:52.302Z,3012.00
2019-03-20T07:25:52.309Z,3108.00
2019-03-20T07:26:52.279Z,3032.00
2019-03-20T07:27:52.269Z,3184.00
2019-03-20T07:28:52.266Z,3228.00
2019-03-20T07:29:52.254Z,3256.00
2019-03-20T07:30:52.265Z,3280.00
2019-03-20T07:31:52.231Z,3224.00
2019-03-20T07:32:52.216Z,3108.00
2019-03-20T07:33:52.208Z,2948.00
2019-03-20T07:34:52.196Z,2712.00
2019-03-20T07:35:52.206Z,2472.00
2019-03-20T07:36:52.172Z,2360.00
2019-03-20T07:37:56.359Z,2292.00
2019-03-20T07:38:52.153Z,2340.00
2019-03-20T07:39:52.152Z,2404.00
2019-03-20T07:40:52.157Z,2488.00
2019-03-20T07:41:52.125Z,2536.00
2019-03-20T07:42:52.109Z,2488.00
2019-03-20T07:43:52.104Z,2572.00
2019-03-20T07:44:52.086Z,2560.00
2019-03-20T07:45:52.099Z,2692.00
2019-03-20T07:46:52.081Z,2892.00
2019-03-20T07:47:52.062Z,2920.00
2019-03-20T07:48:52.044Z,2864.00
2019-03-20T07:49:52.051Z,2424.00
2019-03-20T07:50:52.043Z,2216.00
2019-03-20T07:51:52.021Z,2352.00
2019-03-20T07:52:52.004Z,2444.00
2019-03-20T07:53:51.995Z,2456.00
2019-03-20T07:54:51.982Z,2404.00
2019-03-20T07:55:52.026Z,2352.00
2019-03-20T07:56:51.966Z,2324.00
2019-03-20T07:57:51.955Z,2288.00
2019-03-20T07:58:51.939Z,2316.00
2019-03-20T07:59:51.930Z,2400.00
2019-03-20T08:00:51.918Z,2468.00
2019-03-20T08:01:51.922Z,2532.00
2019-03-20T08:02:51.898Z,2448.00
2019-03-20T08:03:51.881Z,2432.00
2019-03-20T08:04:51.874Z,2408.00
2019-03-20T08:05:51.875Z,2408.00
2019-03-20T08:06:51.891Z,2392.00
2019-03-20T08:07:51.841Z,2400.00
2019-03-20T08:08:51.829Z,2584.00
2019-03-20T08:09:51.821Z,2808.00
2019-03-20T08:10:51.818Z,2984.00
2019-03-20T08:11:51.816Z,2892.00
2019-03-20T08:12:51.787Z,2928.00
2019-03-20T08:13:51.776Z,2984.00
2019-03-20T08:14:51.774Z,2872.00
2019-03-20T08:15:51.754Z,2820.00
2019-03-20T08:16:51.772Z,2668.00
2019-03-20T08:17:51.737Z,2428.00
2019-03-20T08:18:51.728Z,2240.00
2019-03-20T08:19:51.712Z,2040.00
2019-03-20T08:20:51.701Z,2004.00
2019-03-20T08:21:51.714Z,2000.00
2019-03-20T08:22:51.691Z,2072.00
2019-03-20T08:23:51.676Z,2104.00
2019-03-20T08:24:51.662Z,2108.00
2019-03-20T08:25:51.648Z,1996.00
2019-03-20T08:26:51.662Z,2080.00
2019-03-20T08:27:51.626Z,2096.00
2019-03-20T08:28:51.623Z,2120.00
2019-03-20T08:29:51.611Z,2160.00
2019-03-20T08:30:51.595Z,2056.00
2019-03-20T08:31:51.607Z,2196.00
2019-03-20T08:32:51.573Z,2256.00
2019-03-20T08:33:51.561Z,2268.00
2019-03-20T08:34:51.552Z,2232.00
2019-03-20T08:35:51.552Z,2280.00
2019-03-20T08:36:51.558Z,2320.00
2019-03-20T08:37:51.521Z,2344.00
2019-03-20T08:38:51.514Z,2388.00
2019-03-20T08:39:51.968Z,2492.00
2019-03-20T08:40:51.724Z,2676.00
2019-03-20T08:41:51.754Z,2884.00
2019-03-20T08:42:51.471Z,3024.00
2019-03-20T08:43:51.458Z,3056.00
2019-03-20T08:44:51.452Z,3100.00
2019-03-20T08:45:51.451Z,3316.00
2019-03-20T08:46:51.447Z,3448.00
2019-03-20T08:47:51.423Z,3792.00
2019-03-20T08:48:51.405Z,4192.00
2019-03-20T08:49:51.391Z,3892.00
2019-03-20T08:50:51.385Z,3988.00
2019-03-20T08:51:51.409Z,3860.00
2019-03-20T08:52:51.371Z,3940.00
2019-03-20T08:53:51.350Z,3912.00
2019-03-20T08:54:51.338Z,4024.00
2019-03-20T08:55:51.337Z,4280.00
2019-03-20T08:56:51.351Z,4040.00
2019-03-20T08:57:51.315Z,3796.00
2019-03-20T08:58:51.302Z,3648.00
2019-03-20T08:59:51.290Z,3400.00
2019-03-20T09:00:51.275Z,3172.00
2019-03-20T09:01:51.294Z,3112.00
2019-03-20T09:02:51.258Z,3080.00
2019-03-20T09:03:51.249Z,2968.00
2019-03-20T09:04:51.237Z,2804.00
2019-03-20T09:05:51.231Z,2764.00
2019-03-20T09:06:51.241Z,2596.00
2019-03-20T09:07:51.205Z,2712.00
2019-03-20T09:08:51.192Z,2876.00
2019-03-20T09:09:51.197Z,2940.00
2019-03-20T09:10:51.173Z,3040.00
2019-03-20T09:11:51.197Z,2976.00
2019-03-20T09:12:51.151Z,2712.00
2019-03-20T09:13:51.143Z,2692.00
2019-03-20T09:14:51.128Z,2732.00
2019-03-20T09:15:51.126Z,2872.00
2019-03-20T09:16:51.145Z,2996.00
2019-03-20T09:17:51.106Z,3032.00
2019-03-20T09:18:51.088Z,3012.00
2019-03-20T09:19:51.081Z,2948.00
2019-03-20T09:20:51.079Z,2908.00
2019-03-20T09:21:51.094Z,2788.00
2019-03-20T09:22:51.049Z,2844.00
2019-03-20T09:23:51.038Z,2884.00
2019-03-20T09:24:51.031Z,2452.00
2019-03-20T09:25:51.017Z,2488.00
2019-03-20T09:26:51.013Z,2536.00
2019-03-20T09:27:51.015Z,2476.00
2019-03-20T09:28:50.988Z,2584.00
2019-03-20T09:29:50.981Z,2852.00
2019-03-20T09:30:50.966Z,2824.00
2019-03-20T09:31:50.965Z,2828.00
2019-03-20T09:32:50.961Z,2748.00
2019-03-20T09:33:50.969Z,2816.00
2019-03-20T09:34:50.934Z,2992.00
2019-03-20T09:35:50.912Z,3176.00
2019-03-20T09:36:50.900Z,3296.00
2019-03-20T09:37:52.510Z,3476.00
2019-03-20T09:38:50.886Z,3532.00
2019-03-20T09:39:50.874Z,3560.00
2019-03-20T09:40:50.891Z,3760.00
2019-03-20T09:41:50.858Z,4172.00
2019-03-20T09:42:50.899Z,4592.00
2019-03-20T09:43:50.841Z,4540.00
2019-03-20T09:44:50.820Z,4656.00
2019-03-20T09:45:50.816Z,4528.00
2019-03-20T09:46:50.816Z,4604.00
2019-03-20T09:47:50.846Z,4664.00
2019-03-20T09:48:50.793Z,4516.00
2019-03-20T09:49:50.767Z,4376.00
2019-03-20T09:50:50.757Z,4392.00
2019-03-20T09:51:50.753Z,4392.00
2019-03-20T09:52:50.754Z,4684.00
2019-03-20T09:53:50.728Z,4916.00
2019-03-20T09:54:50.769Z,5052.00
2019-03-20T09:55:50.703Z,5180.00
2019-03-20T09:56:50.693Z,5424.00
2019-03-20T09:57:50.714Z,5752.00
2019-03-20T09:58:50.679Z,5764.00
2019-03-20T09:59:50.709Z,6040.00
2019-03-20T10:00:50.653Z,6292.00
2019-03-20T10:01:50.641Z,6444.00
2019-03-20T10:02:50.653Z,6716.00
2019-03-20T10:03:50.620Z,7072.00
2019-03-20T10:04:50.619Z,7360.00
2019-03-20T10:05:50.634Z,7516.00
2019-03-20T10:06:50.754Z,7128.00
2019-03-20T10:07:50.651Z,7800.00
2019-03-20T10:08:54.467Z,7712.00
2019-03-20T10:09:50.644Z,8144.00
2019-03-20T10:10:50.606Z,9232.00
2019-03-20T10:11:50.580Z,10084.00
2019-03-20T10:12:50.586Z,11312.00
2019-03-20T10:13:50.610Z,12544.00
2019-03-20T10:14:50.597Z,13400.00
2019-03-20T10:15:50.611Z,13448.00
2019-03-20T10:16:50.546Z,13740.00
2019-03-20T10:17:50.502Z,13976.00
2019-03-20T10:18:50.534Z,13472.00
2019-03-20T10:19:50.444Z,12400.00
2019-03-20T10:20:50.471Z,16352.00
2019-03-20T10:21:50.424Z,13764.00
2019-03-20T10:22:50.452Z,13484.00
2019-03-20T10:23:50.454Z,13280.00
2019-03-20T10:24:50.419Z,13112.00
2019-03-20T10:25:50.428Z,14484.00
2019-03-20T10:26:50.365Z,17664.00
2019-03-20T10:27:51.984Z,13360.00
2019-03-20T10:28:50.395Z,12168.00
2019-03-20T10:29:50.368Z,11512.00
2019-03-20T10:30:50.356Z,10820.00
2019-03-20T10:31:51.149Z,10880.00
2019-03-20T10:32:50.646Z,10696.00
2019-03-20T10:33:50.322Z,10748.00
2019-03-20T10:34:50.337Z,10820.00
2019-03-20T10:35:50.710Z,11112.00
2019-03-20T10:36:50.287Z,11488.00
2019-03-20T10:37:50.342Z,10668.00
2019-03-20T10:38:50.341Z,10668.00
2019-03-20T10:39:50.264Z,10808.00
2019-03-20T10:40:50.234Z,11004.00
2019-03-20T10:41:50.233Z,11000.00
2019-03-20T10:42:50.296Z,10396.00
2019-03-20T10:43:52.222Z,9460.00
2019-03-20T10:44:50.180Z,8576.00
2019-03-20T10:45:50.159Z,7696.00
2019-03-20T10:46:50.150Z,7116.00
2019-03-20T10:47:52.716Z,6796.00
2019-03-20T10:48:50.123Z,6796.00
2019-03-20T10:49:50.140Z,7164.00
2019-03-20T10:50:50.108Z,7864.00
2019-03-20T10:51:50.096Z,8648.00
2019-03-20T10:52:50.104Z,8708.00
2019-03-20T10:53:50.079Z,9712.00
2019-03-20T10:54:50.062Z,9224.00
2019-03-20T10:55:51.846Z,9792.00
2019-03-20T10:56:50.037Z,10568.00
2019-03-20T10:57:50.075Z,10716.00
2019-03-20T10:58:50.038Z,13220.00
2019-03-20T10:59:50.191Z,14788.00
2019-03-20T11:00:49.994Z,14592.00
2019-03-20T11:01:50.019Z,33888.00
2019-03-20T11:02:50.025Z,34656.00
2019-03-20T11:03:49.971Z,24544.00
2019-03-20T11:04:49.995Z,18496.00
2019-03-20T11:05:49.953Z,17888.00
2019-03-20T11:06:49.926Z,12404.00
2019-03-20T11:07:49.919Z,12248.00
2019-03-20T11:08:49.925Z,11436.00
2019-03-20T11:09:49.910Z,10288.00
2019-03-20T11:10:49.887Z,10360.00
2019-03-20T11:11:49.883Z,11260.00
2019-03-20T11:12:49.876Z,10524.00
2019-03-20T11:13:49.878Z,10684.00
2019-03-20T11:14:49.850Z,12256.00
2019-03-20T11:15:49.854Z,11884.00
2019-03-20T11:16:49.827Z,14844.00
2019-03-20T11:17:49.823Z,17536.00
2019-03-20T11:18:49.829Z,15360.00
2019-03-20T11:19:49.787Z,18336.00
2019-03-20T11:20:49.777Z,20288.00
2019-03-20T11:21:49.767Z,17024.00
2019-03-20T11:22:49.809Z,14156.00
2019-03-20T11:23:49.769Z,15200.00
2019-03-20T11:24:49.743Z,16576.00
2019-03-20T11:25:49.727Z,18816.00
2019-03-20T11:26:49.713Z,20864.00
2019-03-20T11:27:49.708Z,23328.00
2019-03-20T11:28:49.730Z,23264.00
2019-03-20T11:29:49.746Z,22016.00
2019-03-20T11:30:49.671Z,20800.00
2019-03-20T11:31:49.658Z,19808.00
2019-03-20T11:32:49.672Z,17696.00
2019-03-20T11:33:49.657Z,15872.00
2019-03-20T11:34:49.634Z,20672.00
2019-03-20T11:35:49.622Z,26496.00
2019-03-20T11:36:49.608Z,21920.00
2019-03-20T11:37:49.601Z,23552.00
2019-03-20T11:38:49.602Z,23744.00
2019-03-20T11:39:49.578Z,21248.00
2019-03-20T11:40:49.615Z,23936.00
2019-03-20T11:41:49.553Z,22592.00
2019-03-20T11:42:49.546Z,23328.00
2019-03-20T11:43:49.557Z,18240.00
2019-03-20T11:44:49.522Z,18560.00
2019-03-20T11:45:49.514Z,20864.00
2019-03-20T11:46:49.515Z,17376.00
2019-03-20T11:47:49.485Z,19072.00
2019-03-20T11:48:49.494Z,19840.00
2019-03-20T11:49:49.469Z,19648.00
2019-03-20T11:50:49.454Z,20608.00
2019-03-20T11:51:49.459Z,19488.00
2019-03-20T11:52:49.432Z,18080.00
2019-03-20T11:53:49.456Z,15456.00
2019-03-20T11:54:49.411Z,16800.00
2019-03-20T11:55:49.405Z,12616.00
2019-03-20T11:56:49.390Z,14164.00
2019-03-20T11:57:49.380Z,17792.00
2019-03-20T11:58:49.393Z,17024.00
2019-03-20T11:59:49.377Z,16992.00
2019-03-20T12:00:49.349Z,15936.00
2019-03-20T12:01:49.336Z,16608.00
2019-03-20T12:02:49.323Z,13172.00
2019-03-20T12:03:49.332Z,14344.00
2019-03-20T12:04:49.301Z,13356.00
2019-03-20T12:05:49.306Z,16448.00
2019-03-20T12:06:49.280Z,17152.00
2019-03-20T12:07:49.274Z,18720.00
2019-03-20T12:08:49.276Z,25056.00
2019-03-20T12:09:49.252Z,24384.00
2019-03-20T12:10:49.261Z,22272.00
2019-03-20T12:11:49.226Z,25280.00
2019-03-20T12:12:49.216Z,22016.00
2019-03-20T12:13:49.246Z,23968.00
2019-03-20T12:14:49.193Z,26208.00
2019-03-20T12:15:49.205Z,26624.00
2019-03-20T12:16:49.185Z,30336.00
2019-03-20T12:17:49.169Z,28064.00
2019-03-20T12:18:49.176Z,27072.00
2019-03-20T12:19:49.141Z,28800.00
2019-03-20T12:20:49.134Z,31104.00
2019-03-20T12:21:49.131Z,30688.00
2019-03-20T12:22:49.111Z,29760.00
2019-03-20T12:23:49.115Z,27680.00
2019-03-20T12:24:49.087Z,28352.00
2019-03-20T12:25:49.076Z,22176.00
2019-03-20T12:26:49.064Z,25824.00
2019-03-20T12:27:49.068Z,24128.00
2019-03-20T12:28:49.137Z,20160.00
2019-03-20T12:29:49.038Z,15424.00
2019-03-20T12:30:49.021Z,13600.00
2019-03-20T12:31:49.014Z,12880.00
2019-03-20T12:32:49.001Z,12188.00
2019-03-20T12:33:49.026Z,11936.00
2019-03-20T12:34:49.003Z,11160.00
2019-03-20T12:35:48.971Z,10840.00
2019-03-20T12:36:48.959Z,11132.00
2019-03-20T12:37:48.947Z,11064.00
2019-03-20T12:38:48.999Z,11092.00
2019-03-20T12:39:53.192Z,10792.00
2019-03-20T12:40:48.917Z,10660.00
2019-03-20T12:41:48.906Z,11188.00
2019-03-20T12:42:48.896Z,8276.00
2019-03-20T12:43:48.885Z,10704.00
2019-03-20T12:44:48.896Z,9392.00
2019-03-20T12:45:48.878Z,9992.00
2019-03-20T12:46:48.858Z,9772.00
2019-03-20T12:47:48.900Z,10212.00
2019-03-20T12:48:48.831Z,10548.00
2019-03-20T12:49:48.844Z,10164.00
2019-03-20T12:50:48.831Z,10200.00
2019-03-20T12:51:48.805Z,9900.00
2019-03-20T12:52:48.792Z,8152.00
2019-03-20T12:53:48.797Z,7152.00
2019-03-20T12:54:48.787Z,6812.00
2019-03-20T12:55:48.768Z,7128.00
2019-03-20T12:56:48.835Z,7268.00
2019-03-20T12:57:48.755Z,7100.00
2019-03-20T12:58:48.730Z,6828.00
2019-03-20T12:59:48.792Z,6308.00
2019-03-20T13:00:49.791Z,6144.00
2019-03-20T13:01:48.694Z,6060.00
2019-03-20T13:02:48.687Z,6148.00
2019-03-20T13:03:48.692Z,6508.00
2019-03-20T13:04:48.682Z,6688.00
2019-03-20T13:05:48.649Z,6588.00
2019-03-20T13:06:48.645Z,6288.00
2019-03-20T13:07:48.629Z,5792.00
2019-03-20T13:08:48.620Z,5160.00
2019-03-20T13:09:48.631Z,4768.00
2019-03-20T13:10:48.603Z,4664.00
2019-03-20T13:11:48.597Z,4748.00
2019-03-20T13:12:48.576Z,4764.00
2019-03-20T13:13:48.569Z,4820.00
2019-03-20T13:14:48.581Z,4888.00
2019-03-20T13:15:48.571Z,4948.00
2019-03-20T13:16:48.533Z,4964.00
2019-03-20T13:17:48.521Z,4896.00
2019-03-20T13:18:48.518Z,4824.00
2019-03-20T13:19:48.523Z,4888.00
2019-03-20T13:20:48.490Z,4796.00
2019-03-20T13:21:48.479Z,4436.00
2019-03-20T13:22:48.469Z,4136.00
2019-03-20T13:23:48.457Z,3832.00
2019-03-20T13:24:48.479Z,3648.00
2019-03-20T13:25:48.436Z,3696.00
2019-03-20T13:26:48.422Z,3872.00
2019-03-20T13:27:48.411Z,4012.00
2019-03-20T13:28:48.403Z,4256.00
2019-03-20T13:29:48.411Z,4340.00
2019-03-20T13:30:49.016Z,4260.00
2019-03-20T13:31:48.369Z,4124.00
2019-03-20T13:32:48.387Z,3884.00
2019-03-20T13:33:49.266Z,3740.00
2019-03-20T13:34:48.356Z,3788.00
2019-03-20T13:35:48.335Z,3988.00
2019-03-20T13:36:48.317Z,4184.00
2019-03-20T13:37:48.303Z,4232.00
2019-03-20T13:38:48.309Z,4244.00
2019-03-20T13:39:48.301Z,4228.00
2019-03-20T13:40:48.274Z,4212.00
2019-03-20T13:41:48.260Z,4100.00
2019-03-20T13:42:48.250Z,3968.00
2019-03-20T13:43:48.253Z,3904.00
2019-03-20T13:44:48.251Z,3836.00
2019-03-20T13:45:48.227Z,3720.00
2019-03-20T13:46:48.225Z,3600.00
2019-03-20T13:47:48.201Z,3576.00
2019-03-20T13:48:48.187Z,3668.00
2019-03-20T13:49:48.199Z,3732.00
2019-03-20T13:50:48.168Z,3780.00
2019-03-20T13:51:48.158Z,3840.00
2019-03-20T13:52:48.147Z,3892.00
2019-03-20T13:53:48.132Z,3868.00
2019-03-20T13:54:48.141Z,3916.00
2019-03-20T13:55:48.110Z,4056.00
2019-03-20T13:56:48.108Z,4148.00
2019-03-20T13:57:48.091Z,4196.00
2019-03-20T13:58:48.076Z,4196.00
2019-03-20T13:59:48.088Z,4128.00
2019-03-20T14:00:48.058Z,3984.00
2019-03-20T14:01:48.045Z,3972.00
2019-03-20T14:02:48.051Z,3940.00
2019-03-20T14:03:48.030Z,3960.00
2019-03-20T14:04:48.038Z,3868.00
2019-03-20T14:05:48.000Z,3752.00
2019-03-20T14:06:48.031Z,3736.00
2019-03-20T14:07:47.978Z,3740.00
2019-03-20T14:08:47.968Z,3756.00
2019-03-20T14:09:47.974Z,3704.00
2019-03-20T14:10:51.068Z,3544.00
2019-03-20T14:11:47.942Z,3360.00
2019-03-20T14:12:47.925Z,3208.00
2019-03-20T14:13:47.913Z,3000.00
2019-03-20T14:14:47.909Z,2852.00
2019-03-20T14:15:47.919Z,2776.00
2019-03-20T14:16:47.882Z,2776.00
2019-03-20T14:17:47.869Z,2852.00
2019-03-20T14:18:47.863Z,2884.00
2019-03-20T14:19:47.850Z,2860.00
2019-03-20T14:20:47.849Z,2780.00
2019-03-20T14:21:47.843Z,2704.00
2019-03-20T14:22:47.816Z,2680.00
2019-03-20T14:23:47.808Z,2708.00
2019-03-20T14:24:47.792Z,2792.00
2019-03-20T14:25:47.794Z,2880.00
2019-03-20T14:26:47.776Z,2900.00
2019-03-20T14:27:47.760Z,2880.00
2019-03-20T14:28:47.774Z,2836.00
2019-03-20T14:29:47.736Z,2756.00
2019-03-20T14:30:47.750Z,2660.00
2019-03-20T14:31:47.716Z,2604.00
2019-03-20T14:32:47.711Z,2588.00
2019-03-20T14:33:47.707Z,2624.00
2019-03-20T14:34:47.700Z,2664.00
2019-03-20T14:35:47.690Z,2724.00
2019-03-20T14:36:47.664Z,2816.00
2019-03-20T14:37:47.651Z,2916.00
2019-03-20T14:38:47.639Z,2976.00
2019-03-20T14:39:47.630Z,3136.00
2019-03-20T14:40:47.635Z,3248.00
2019-03-20T14:41:47.616Z,3356.00
2019-03-20T14:42:47.598Z,3420.00
2019-03-20T14:43:47.586Z,3432.00
2019-03-20T14:44:47.574Z,3400.00
2019-03-20T14:45:47.581Z,3312.00
2019-03-20T14:46:47.553Z,3200.00
2019-03-20T14:47:47.548Z,3080.00
2019-03-20T14:48:47.538Z,3004.00
2019-03-20T14:49:47.522Z,2980.00
2019-03-20T14:50:47.528Z,3020.00
2019-03-20T14:51:47.506Z,3056.00
2019-03-20T14:52:47.485Z,3032.00
2019-03-20T14:53:47.480Z,2964.00
2019-03-20T14:54:47.480Z,2876.00
2019-03-20T14:55:47.476Z,2792.00
2019-03-20T14:56:47.442Z,2712.00
2019-03-20T14:57:47.447Z,2640.00
2019-03-20T14:58:47.420Z,2612.00
2019-03-20T14:59:47.414Z,2620.00
2019-03-20T15:00:47.717Z,2656.00
2019-03-20T15:01:47.387Z,2696.00
2019-03-20T15:02:47.387Z,2708.00
2019-03-20T15:03:48.743Z,2632.00
2019-03-20T15:04:47.357Z,2480.00
2019-03-20T15:05:47.363Z,2356.00
2019-03-20T15:06:47.338Z,2304.00
2019-03-20T15:07:47.322Z,2360.00
2019-03-20T15:08:47.330Z,2492.00
2019-03-20T15:09:47.306Z,2592.00
2019-03-20T15:10:47.307Z,2696.00
2019-03-20T15:11:47.279Z,2768.00
2019-03-20T15:12:47.268Z,2780.00
2019-03-20T15:13:47.255Z,2708.00
2019-03-20T15:14:47.267Z,2624.00
2019-03-20T15:15:47.267Z,2552.00
2019-03-20T15:16:47.230Z,2512.00
2019-03-20T15:17:47.215Z,2560.00
2019-03-20T15:18:47.206Z,2592.00
2019-03-20T15:19:47.191Z,2592.00
2019-03-20T15:20:47.204Z,2612.00
2019-03-20T15:21:47.201Z,2608.00
2019-03-20T15:22:47.159Z,2580.00
2019-03-20T15:23:47.149Z,2560.00
2019-03-20T15:24:47.138Z,2540.00
2019-03-20T15:25:47.154Z,2508.00
2019-03-20T15:26:47.122Z,2480.00
2019-03-20T15:27:47.106Z,2476.00
2019-03-20T15:28:47.093Z,2456.00
2019-03-20T15:29:47.095Z,2448.00
2019-03-20T15:30:47.102Z,2404.00
2019-03-20T15:31:47.066Z,2340.00
2019-03-20T15:32:47.053Z,2280.00
2019-03-20T15:33:47.036Z,2184.00
2019-03-20T15:34:47.028Z,2056.00
2019-03-20T15:35:47.036Z,1928.00
2019-03-20T15:36:47.018Z,1844.00
2019-03-20T15:37:47.003Z,1812.00
2019-03-20T15:38:46.987Z,1808.00
2019-03-20T15:39:46.975Z,1820.00
2019-03-20T15:40:55.878Z,1832.00
2019-03-20T15:41:47.951Z,1824.00
2019-03-20T15:42:46.946Z,1792.00
2019-03-20T15:43:46.950Z,1764.00
2019-03-20T15:44:46.920Z,1736.00
2019-03-20T15:45:46.938Z,1708.00
2019-03-20T15:46:46.895Z,1684.00
2019-03-20T15:47:46.889Z,1648.00
2019-03-20T15:48:46.872Z,1620.00
2019-03-20T15:49:46.869Z,1536.00
2019-03-20T15:50:46.872Z,1440.00
2019-03-20T15:51:46.839Z,1364.00
2019-03-20T15:52:46.829Z,1300.00
2019-03-20T15:53:46.821Z,1256.00
2019-03-20T15:54:46.807Z,1224.00
2019-03-20T15:55:46.818Z,1192.00
2019-03-20T15:56:46.808Z,1188.00
2019-03-20T15:57:46.818Z,1192.00
2019-03-20T15:58:46.765Z,1216.00
2019-03-20T15:59:46.756Z,1240.00
2019-03-20T16:00:46.767Z,1228.00
2019-03-20T16:01:46.732Z,1180.00
2019-03-20T16:02:46.749Z,1132.00
2019-03-20T16:03:46.726Z,1076.00
2019-03-20T16:04:46.699Z,1020.00
2019-03-20T16:05:46.694Z,980.00
2019-03-20T16:06:46.706Z,960.00
2019-03-20T16:07:46.671Z,952.00
2019-03-20T16:08:46.668Z,960.00
2019-03-20T16:09:46.649Z,980.00
2019-03-20T16:10:46.663Z,1012.00
2019-03-20T16:11:46.625Z,1040.00
2019-03-20T16:12:46.613Z,1044.00
2019-03-20T16:13:46.601Z,1044.00
2019-03-20T16:14:46.602Z,1032.00
2019-03-20T16:15:46.602Z,1032.00
2019-03-20T16:16:46.574Z,1076.00
2019-03-20T16:17:46.558Z,1148.00
2019-03-20T16:18:46.551Z,1196.00
2019-03-20T16:19:46.545Z,1204.00
2019-03-20T16:20:46.556Z,1192.00
2019-03-20T16:21:46.513Z,1160.00
2019-03-20T16:22:46.507Z,1116.00
2019-03-20T16:23:46.490Z,1076.00
2019-03-20T16:24:46.487Z,1044.00
2019-03-20T16:25:46.488Z,1016.00
2019-03-20T16:26:46.478Z,996.00
2019-03-20T16:27:46.446Z,968.00
2019-03-20T16:28:46.433Z,948.00
2019-03-20T16:29:46.425Z,932.00
2019-03-20T16:30:46.424Z,920.00
2019-03-20T16:31:46.429Z,908.00
2019-03-20T16:32:46.399Z,892.00
2019-03-20T16:33:46.379Z,880.00
2019-03-20T16:34:46.934Z,868.00
2019-03-20T16:35:46.400Z,860.00
2019-03-20T16:36:46.366Z,856.00
2019-03-20T16:37:46.392Z,844.00
2019-03-20T16:38:46.343Z,840.00
2019-03-20T16:39:46.315Z,840.00
2019-03-20T16:40:46.303Z,836.00
2019-03-20T16:41:46.320Z,820.00
2019-03-20T16:42:46.282Z,808.00
2019-03-20T16:43:46.282Z,796.00
2019-03-20T16:44:46.285Z,776.00
2019-03-20T16:45:46.248Z,752.00
2019-03-20T16:46:46.255Z,732.00
2019-03-20T16:47:46.234Z,696.00
2019-03-20T16:48:46.218Z,660.00
2019-03-20T16:49:46.213Z,624.00
2019-03-20T16:50:46.197Z,588.00
2019-03-20T16:51:46.203Z,556.00
2019-03-20T16:52:46.180Z,520.00
2019-03-20T16:53:46.168Z,492.00
2019-03-20T16:54:46.156Z,468.00
2019-03-20T16:55:46.152Z,456.00
2019-03-20T16:56:46.160Z,444.00
2019-03-20T16:57:46.114Z,440.00
2019-03-20T16:58:46.103Z,436.00
2019-03-20T16:59:46.102Z,436.00
2019-03-20T17:00:46.094Z,436.00
2019-03-20T17:01:46.096Z,432.00
2019-03-20T17:02:46.060Z,428.00
2019-03-20T17:03:46.048Z,428.00
2019-03-20T17:04:46.037Z,420.00
2019-03-20T17:05:46.031Z,408.00
2019-03-20T17:06:46.039Z,396.00
2019-03-20T17:07:46.005Z,384.00
2019-03-20T17:08:45.993Z,368.00
2019-03-20T17:09:45.984Z,356.00
2019-03-20T17:10:45.973Z,344.00
2019-03-20T17:11:45.988Z,328.00
2019-03-20T17:12:45.946Z,316.00
2019-03-20T17:13:45.937Z,304.00
2019-03-20T17:14:45.927Z,288.00
2019-03-20T17:15:45.914Z,276.00
2019-03-20T17:16:45.939Z,260.00
2019-03-20T17:17:45.905Z,248.00
2019-03-20T17:18:45.884Z,236.00
2019-03-20T17:19:45.878Z,224.00
2019-03-20T17:20:45.865Z,212.00
2019-03-20T17:21:45.868Z,204.00
2019-03-20T17:22:45.835Z,196.00
2019-03-20T17:23:45.837Z,192.00
2019-03-20T17:24:45.826Z,184.00
2019-03-20T17:25:45.803Z,176.00
2019-03-20T17:26:45.810Z,168.00
2019-03-20T17:27:45.781Z,160.00
2019-03-20T17:28:45.769Z,152.00
2019-03-20T17:29:45.781Z,144.00
2019-03-20T17:30:45.773Z,136.00
2019-03-20T17:31:45.760Z,132.00